Tiempo atmosférico en la estación meteorológica de Tielmes, Madrid (594 m.)



Fecha
DESCASC
Temp. máxima en grados centígrados (hora)
DESCASC
Temp. mínima en grados centígrados (hora)
DESCASC
Temp. media en grados centígrados
DESCASC
Racha de viento máxima en m/sg (hora)
DESCASC
Velocidad máxima media en intervalos de 10 minutos(hora)
DESCASC
Precipitaciones diarias en mm
DESCASC
Precipitaciones de 00:00 a 06:00 en mm
DESCASC
Precipitaciones de 06:00 a 12:00 en mm
DESCASC
Precipitaciones de 12:00 a 18:00 en mm
DESCASC
Precipitaciones de 18:00 a 24:00 en mm
DESCASC
14-02-2021 15.8 (15:40) 0.5 (08:40) 8.2 -- (--) -- (--) 0 0 0 0 0
13-02-2021 15.1 (16:40) 2.4 (00:00) 8.8 -- (--) -- (--) 0 0 0 0 0
12-02-2021 14.9 (16:30) 7.4 (00:00) 11.1 -- (--) -- (--) 0.4 0 0.2 0.2 0
11-02-2021 -- (--) -- (--) -- -- (--) -- (--) -- -- -- 0 0
10-02-2021 -- (--) -- (--) -- -- (--) -- (--) -- -- -- -- --
09-02-2021 -- (--) -- (--) -- -- (--) -- (--) -- -- -- -- --
08-02-2021 -- (--) -- (--) -- -- (--) -- (--) -- -- -- -- --
07-02-2021 -- (--) -- (--) -- -- (--) -- (--) -- -- -- -- --
06-02-2021 -- (--) -- (--) -- -- (--) -- (--) -- -- -- -- --
05-02-2021 -- (--) -- (--) -- -- (--) -- (--) -- -- -- -- --
04-02-2021 -- (--) -- (--) -- -- (--) -- (--) -- -- -- -- --
03-02-2021 -- (--) -- (--) -- -- (--) -- (--) -- 0.2 0 -- --
02-02-2021 13.7 (15:40) 8.9 (00:00) 11.3 -- (--) -- (--) 0.4 0 0.4 0 0
01-02-2021 -- (--) -- (--) -- -- (--) -- (--) -- 0 -- 0 0
31-01-2021 -- (--) -- (--) -- -- (--) -- (--) -- -- 0 0 0
30-01-2021 -- (--) -- (--) -- -- (--) -- (--) -- 0 -- 0 0

Gráficas

Temp. máximas Temp. mínimas Temp. medias Precipitaciones Rachas de viento máximas Velocidades máximas media en intervalos de 10 minutos

Datos horarios

Fecha y hora oficial Temperatura (ºC) Velocidad del viento (km/h) Dirección del viento Racha (km/h) Dirección de racha Precipitación (mm) Presión (hPa) Tendencia (hPa) Humedad (%)
2021-02-17 02:00:00 4.1 -- -- -- -- 0 -- -- 87
2021-02-17 01:00:00 4.7 -- -- -- -- 0 -- -- 86
2021-02-17 00:00:00 5.4 -- -- -- -- 0 -- -- --
2021-02-16 23:00:00 6.5 -- -- -- -- 0 -- -- 80
2021-02-16 22:00:00 8 -- -- -- -- 0 -- -- 76
2021-02-16 21:00:00 9.3 -- -- -- -- 0 -- -- 72
2021-02-16 20:00:00 11.3 -- -- -- -- 0 -- -- 67
2021-02-16 19:00:00 12.7 -- -- -- -- 0 -- -- --
2021-02-16 18:00:00 14.8 -- -- -- -- 0 -- -- 54
2021-02-16 17:00:00 15.6 -- -- -- -- 0 -- -- --
2021-02-16 16:00:00 16.2 -- -- -- -- 0 -- -- 50
2021-02-16 15:00:00 16.3 -- -- -- -- 0 -- -- 51
2021-02-16 14:00:00 15.1 -- -- -- -- 0 -- -- --
2021-02-16 13:00:00 13.3 -- -- -- -- 0 -- -- --
2021-02-16 12:00:00 10.5 -- -- -- -- 0 -- -- --
2021-02-16 11:00:00 6.9 -- -- -- -- 0 -- -- --
2021-02-16 10:00:00 3.8 -- -- -- -- 0 -- -- --
2021-02-16 09:00:00 2 -- -- -- -- 0 -- -- 93
2021-02-16 08:00:00 1.6 -- -- -- -- 0 -- -- 92
2021-02-16 07:00:00 2 -- -- -- -- 0 -- -- 92
2021-02-16 06:00:00 2.5 -- -- -- -- 0 -- -- 91
2021-02-16 05:00:00 2.9 -- -- -- -- 0 -- -- 91
2021-02-16 04:00:00 3.3 -- -- -- -- 0 -- -- 90
2021-02-16 03:00:00 3.6 -- -- -- -- 0 -- -- 89
2021-02-16 02:00:00 4.2 -- -- -- -- 0 -- -- 86
2021-02-16 01:00:00 4.7 -- -- -- -- 0 -- -- 85
2021-02-16 00:00:00 5.7 -- -- -- -- 0 -- -- 84
2021-02-15 23:00:00 6.7 -- -- -- -- 0 -- -- 79
2021-02-15 22:00:00 8.5 -- -- -- -- 0 -- -- 75
2021-02-15 21:00:00 9.8 -- -- -- -- 0 -- -- 74
2021-02-15 20:00:00 10.9 -- -- -- -- 0 -- -- 69
2021-02-15 19:00:00 13 -- -- -- -- 0 -- -- 62
2021-02-15 18:00:00 14.5 -- -- -- -- 0 -- -- 58
2021-02-15 17:00:00 15.1 -- -- -- -- 0 -- -- 56
2021-02-15 16:00:00 15.2 -- -- -- -- 0 -- -- 57
2021-02-15 15:00:00 15.3 -- -- -- -- 0 -- -- --
2021-02-15 14:00:00 14.4 -- -- -- -- 0 -- -- --
2021-02-15 13:00:00 13.5 -- -- -- -- 0 -- -- --
2021-02-15 12:00:00 12.6 -- -- -- -- 0 -- -- 70
2021-02-15 11:00:00 9.2 -- -- -- -- 0 -- -- 80
2021-02-15 10:00:00 5.6 -- -- -- -- 0 -- -- 89
2021-02-15 09:00:00 3.9 -- -- -- -- 0 -- -- 92
2021-02-15 08:00:00 3.7 -- -- -- -- 0 -- -- 91
2021-02-15 07:00:00 4.1 -- -- -- -- 0 -- -- 90
2021-02-15 06:00:00 4.1 -- -- -- -- 0 -- -- 90
2021-02-15 05:00:00 5 -- -- -- -- 0 -- -- 86
2021-02-15 04:00:00 6.1 -- -- -- -- 0 -- -- 85
2021-02-15 03:00:00 7.1 -- -- -- -- 0 -- -- 83
2021-02-15 02:00:00 8.2 -- -- -- -- 0 -- -- 81
2021-02-15 01:00:00 8.6 -- -- -- -- 0 -- -- 80
2021-02-15 00:00:00 8.8 -- -- -- -- 0 -- -- 77
2021-02-14 23:00:00 9.4 -- -- -- -- 0 -- -- 75
2021-02-14 22:00:00 10 -- -- -- -- 0 -- -- 73
2021-02-14 21:00:00 9.6 -- -- -- -- 0 -- -- 72
2021-02-14 20:00:00 11.5 -- -- -- -- 0 -- -- 66
2021-02-14 19:00:00 13.5 -- -- -- -- 0 -- -- 60
2021-02-14 18:00:00 15.2 -- -- -- -- 0 -- -- 53
2021-02-14 17:00:00 15.7 -- -- -- -- 0 -- -- 51
2021-02-14 16:00:00 15.7 -- -- -- -- 0 -- -- 50
2021-02-14 15:00:00 15.5 -- -- -- -- 0 -- -- 51
2021-02-14 14:00:00 15.3 -- -- -- -- 0 -- -- --
2021-02-14 13:00:00 14.4 -- -- -- -- 0 -- -- --
2021-02-14 12:00:00 12 -- -- -- -- 0 -- -- --
2021-02-14 11:00:00 7.7 -- -- -- -- 0 -- -- 79
2021-02-14 10:00:00 4.1 -- -- -- -- 0 -- -- 88
2021-02-14 09:00:00 1.1 -- -- -- -- 0 -- -- 93
2021-02-14 08:00:00 0.7 -- -- -- -- 0 -- -- 92
2021-02-14 07:00:00 1.3 -- -- -- -- 0 -- -- 89
2021-02-14 06:00:00 1.9 -- -- -- -- 0 -- -- 89
2021-02-14 05:00:00 2.5 -- -- -- -- 0 -- -- 89
2021-02-14 04:00:00 2.9 -- -- -- -- 0 -- -- 89
2021-02-14 03:00:00 3.3 -- -- -- -- 0 -- -- 89
2021-02-14 02:00:00 3.8 -- -- -- -- 0 -- -- 87
2021-02-14 01:00:00 4.5 -- -- -- -- 0 -- -- 88
2021-02-14 00:00:00 5.2 -- -- -- -- 0 -- -- 86
2021-02-13 23:00:00 6.4 -- -- -- -- 0 -- -- 83
2021-02-13 22:00:00 7.7 -- -- -- -- 0 -- -- --
2021-02-13 21:00:00 9.3 -- -- -- -- 0 -- -- 75
2021-02-13 20:00:00 11.1 -- -- -- -- 0 -- -- --
2021-02-13 19:00:00 13.2 -- -- -- -- 0 -- -- 61
2021-02-13 18:00:00 15 -- -- -- -- 0 -- -- 48
2021-02-13 17:00:00 15.1 -- -- -- -- 0 -- -- 47
2021-02-13 16:00:00 14.8 -- -- -- -- 0 -- -- 52
2021-02-13 15:00:00 14.5 -- -- -- -- 0 -- -- --
2021-02-13 14:00:00 13.9 -- -- -- -- 0 -- -- --
2021-02-13 13:00:00 12.9 -- -- -- -- 0 -- -- --
2021-02-13 08:00:00 -- -- -- -- -- -- -- -- --
2021-02-13 07:00:00 -- -- -- -- -- -- -- -- --
2021-02-13 06:00:00 3.7 -- -- -- -- 0 -- -- 89
2021-02-13 05:00:00 4.2 -- -- -- -- 0 -- -- 89
2021-02-13 04:00:00 4.6 -- -- -- -- 0 -- -- 87
2021-02-13 03:00:00 5.2 -- -- -- -- 0 -- -- 86
2021-02-13 02:00:00 5.7 -- -- -- -- 0 -- -- 84
2021-02-13 01:00:00 6.9 -- -- -- -- 0 -- -- 80
2021-02-13 00:00:00 7.4 -- -- -- -- 0 -- -- 79
2021-02-12 23:00:00 8.3 -- -- -- -- 0 -- -- 75
2021-02-12 22:00:00 9.5 -- -- -- -- 0 -- -- 71
2021-02-12 21:00:00 10.3 -- -- -- -- 0 -- -- 69
2021-02-12 20:00:00 11.3 -- -- -- -- 0 -- -- 65
2021-02-12 19:00:00 12.4 -- -- -- -- 0 -- -- 61
2021-02-12 18:00:00 13.8 -- -- -- -- 0 -- -- --
2021-02-12 17:00:00 14.5 -- -- -- -- 0 -- -- --
2021-02-12 16:00:00 14.8 -- -- -- -- 0 -- -- 55
2021-02-12 15:00:00 14.4 -- -- -- -- 0 -- -- --
2021-02-12 14:00:00 13.5 -- -- -- -- 0 -- -- 61
2021-02-12 13:00:00 13 -- -- -- -- 0.2 -- -- --
2021-02-12 12:00:00 12.9 -- -- -- -- 0 -- -- 65
2021-02-12 11:00:00 12.8 -- -- -- -- 0 -- -- --
2021-02-12 10:00:00 10.9 -- -- -- -- 0 -- -- 93
2021-02-12 09:00:00 10.3 -- -- -- -- 0 -- -- 93
2021-02-12 08:00:00 10.5 -- -- -- -- 0.2 -- -- 94
2021-02-12 07:00:00 10.4 -- -- -- -- 0 -- -- 95
2021-02-12 06:00:00 9.8 -- -- -- -- 0 -- -- 96
2021-02-12 05:00:00 9 -- -- -- -- 0 -- -- 95
2021-02-12 04:00:00 9.7 -- -- -- -- 0 -- -- 94
2021-02-12 03:00:00 10.6 -- -- -- -- 0 -- -- 95
2021-02-12 02:00:00 10.7 -- -- -- -- 0 -- -- 95
2021-02-12 01:00:00 10.8 -- -- -- -- 0 -- -- 95
2021-02-12 00:00:00 11 -- -- -- -- 0 -- -- 94
2021-02-11 23:00:00 11.2 -- -- -- -- 0 -- -- 93
2021-02-11 22:00:00 11.3 -- -- -- -- 0 -- -- 93
2021-02-11 21:00:00 11.9 -- -- -- -- 0 -- -- 92
2021-02-11 20:00:00 12.3 -- -- -- -- 0 -- -- 90
2021-02-11 19:00:00 12.7 -- -- -- -- 0 -- -- 89
2021-02-11 18:00:00 13.2 -- -- -- -- 0 -- -- 87
2021-02-11 17:00:00 13.5 -- -- -- -- 0 -- -- 87
2021-02-11 16:00:00 13.7 -- -- -- -- 0 -- -- 86
2021-02-11 15:00:00 13.8 -- -- -- -- 0 -- -- 83
2021-02-11 14:00:00 13 -- -- -- -- 0 -- -- 87
2021-02-11 13:00:00 13.1 -- -- -- -- 0 -- -- 84
2021-02-11 12:00:00 12.4 -- -- -- -- -- -- -- 86
2021-02-11 11:00:00 -- -- -- -- -- -- -- -- --
2021-02-11 10:00:00 -- -- -- -- -- -- -- -- --
2021-02-11 09:00:00 -- -- -- -- -- -- -- -- --
2021-02-11 08:00:00 -- -- -- -- -- -- -- -- --
2021-02-11 07:00:00 -- -- -- -- -- -- -- -- --
2021-02-11 06:00:00 -- -- -- -- -- -- -- -- --
2021-02-11 05:00:00 -- -- -- -- -- -- -- -- --
2021-02-11 04:00:00 -- -- -- -- -- -- -- -- --
2021-02-11 03:00:00 -- -- -- -- -- -- -- -- --
2021-02-11 02:00:00 -- -- -- -- -- -- -- -- --
2021-02-11 01:00:00 -- -- -- -- -- -- -- -- --
2021-02-11 00:00:00 -- -- -- -- -- -- -- -- --
2021-02-10 23:00:00 -- -- -- -- -- -- -- -- --
2021-02-10 22:00:00 -- -- -- -- -- -- -- -- --
2021-02-10 21:00:00 -- -- -- -- -- -- -- -- --
2021-02-10 20:00:00 -- -- -- -- -- -- -- -- --
2021-02-10 19:00:00 -- -- -- -- -- -- -- -- --
2021-02-10 18:00:00 -- -- -- -- -- -- -- -- --
2021-02-10 17:00:00 -- -- -- -- -- -- -- -- --
2021-02-10 16:00:00 -- -- -- -- -- -- -- -- --
2021-02-10 15:00:00 -- -- -- -- -- -- -- -- --
2021-02-10 14:00:00 -- -- -- -- -- -- -- -- --
2021-02-10 13:00:00 -- -- -- -- -- -- -- -- --
2021-02-10 12:00:00 -- -- -- -- -- -- -- -- --
2021-02-10 11:00:00 -- -- -- -- -- -- -- -- --
2021-02-10 10:00:00 -- -- -- -- -- -- -- -- --
2021-02-10 09:00:00 -- -- -- -- -- -- -- -- --
2021-02-10 08:00:00 -- -- -- -- -- -- -- -- --
2021-02-10 07:00:00 -- -- -- -- -- -- -- -- --
2021-02-10 06:00:00 -- -- -- -- -- -- -- -- --
2021-02-10 05:00:00 -- -- -- -- -- -- -- -- --
2021-02-10 04:00:00 -- -- -- -- -- -- -- -- --
2021-02-10 03:00:00 -- -- -- -- -- -- -- -- --
2021-02-10 02:00:00 -- -- -- -- -- -- -- -- --
2021-02-10 01:00:00 -- -- -- -- -- -- -- -- --
2021-02-10 00:00:00 -- -- -- -- -- -- -- -- --
2021-02-09 23:00:00 -- -- -- -- -- -- -- -- --
2021-02-09 22:00:00 -- -- -- -- -- -- -- -- --
2021-02-09 21:00:00 -- -- -- -- -- -- -- -- --
2021-02-09 20:00:00 -- -- -- -- -- -- -- -- --
2021-02-09 19:00:00 -- -- -- -- -- -- -- -- --
2021-02-09 18:00:00 -- -- -- -- -- -- -- -- --
2021-02-09 17:00:00 -- -- -- -- -- -- -- -- --
2021-02-09 16:00:00 -- -- -- -- -- -- -- -- --
2021-02-09 15:00:00 -- -- -- -- -- -- -- -- --
2021-02-09 14:00:00 -- -- -- -- -- -- -- -- --
2021-02-09 13:00:00 -- -- -- -- -- -- -- -- --
2021-02-09 12:00:00 -- -- -- -- -- -- -- -- --
2021-02-09 11:00:00 -- -- -- -- -- -- -- -- --
2021-02-09 10:00:00 -- -- -- -- -- -- -- -- --
2021-02-09 09:00:00 -- -- -- -- -- -- -- -- --
2021-02-09 08:00:00 -- -- -- -- -- -- -- -- --
2021-02-09 07:00:00 -- -- -- -- -- -- -- -- --
2021-02-09 06:00:00 -- -- -- -- -- -- -- -- --
2021-02-09 05:00:00 -- -- -- -- -- -- -- -- --
2021-02-09 04:00:00 -- -- -- -- -- -- -- -- --
2021-02-09 03:00:00 -- -- -- -- -- -- -- -- --
2021-02-09 02:00:00 -- -- -- -- -- -- -- -- --
2021-02-09 01:00:00 -- -- -- -- -- -- -- -- --
2021-02-09 00:00:00 -- -- -- -- -- -- -- -- --
2021-02-08 23:00:00 -- -- -- -- -- -- -- -- --
2021-02-08 22:00:00 -- -- -- -- -- -- -- -- --
2021-02-08 21:00:00 -- -- -- -- -- -- -- -- --
2021-02-08 20:00:00 -- -- -- -- -- -- -- -- --
2021-02-08 19:00:00 -- -- -- -- -- -- -- -- --
2021-02-08 18:00:00 -- -- -- -- -- -- -- -- --
2021-02-08 17:00:00 -- -- -- -- -- -- -- -- --
2021-02-08 16:00:00 -- -- -- -- -- -- -- -- --
2021-02-08 15:00:00 -- -- -- -- -- -- -- -- --
2021-02-08 14:00:00 -- -- -- -- -- -- -- -- --
2021-02-08 13:00:00 -- -- -- -- -- -- -- -- --
2021-02-08 12:00:00 -- -- -- -- -- -- -- -- --
2021-02-08 11:00:00 -- -- -- -- -- -- -- -- --
2021-02-08 10:00:00 -- -- -- -- -- -- -- -- --
2021-02-08 09:00:00 -- -- -- -- -- -- -- -- --
2021-02-08 08:00:00 -- -- -- -- -- -- -- -- --
2021-02-08 07:00:00 -- -- -- -- -- -- -- -- --
2021-02-08 06:00:00 -- -- -- -- -- -- -- -- --
2021-02-08 05:00:00 -- -- -- -- -- -- -- -- --
2021-02-08 04:00:00 -- -- -- -- -- -- -- -- --
2021-02-08 03:00:00 -- -- -- -- -- -- -- -- --
2021-02-08 02:00:00 -- -- -- -- -- -- -- -- --
2021-02-08 01:00:00 -- -- -- -- -- -- -- -- --
2021-02-08 00:00:00 -- -- -- -- -- -- -- -- --
2021-02-07 23:00:00 -- -- -- -- -- -- -- -- --
2021-02-07 22:00:00 -- -- -- -- -- -- -- -- --
2021-02-07 21:00:00 -- -- -- -- -- -- -- -- --
2021-02-07 20:00:00 -- -- -- -- -- -- -- -- --
2021-02-07 19:00:00 -- -- -- -- -- -- -- -- --
2021-02-07 18:00:00 -- -- -- -- -- -- -- -- --
2021-02-07 17:00:00 -- -- -- -- -- -- -- -- --
2021-02-07 16:00:00 -- -- -- -- -- -- -- -- --
2021-02-07 15:00:00 -- -- -- -- -- -- -- -- --
2021-02-07 14:00:00 -- -- -- -- -- -- -- -- --
2021-02-07 13:00:00 -- -- -- -- -- -- -- -- --
2021-02-07 12:00:00 -- -- -- -- -- -- -- -- --
2021-02-07 11:00:00 -- -- -- -- -- -- -- -- --
2021-02-07 10:00:00 -- -- -- -- -- -- -- -- --
2021-02-07 09:00:00 -- -- -- -- -- -- -- -- --
2021-02-07 08:00:00 -- -- -- -- -- -- -- -- --
2021-02-07 07:00:00 -- -- -- -- -- -- -- -- --
2021-02-07 06:00:00 -- -- -- -- -- -- -- -- --
2021-02-07 05:00:00 -- -- -- -- -- -- -- -- --
2021-02-07 04:00:00 -- -- -- -- -- -- -- -- --
2021-02-07 03:00:00 -- -- -- -- -- -- -- -- --
2021-02-07 02:00:00 -- -- -- -- -- -- -- -- --
2021-02-07 01:00:00 -- -- -- -- -- -- -- -- --
2021-02-07 00:00:00 -- -- -- -- -- -- -- -- --
2021-02-06 23:00:00 -- -- -- -- -- -- -- -- --
2021-02-06 22:00:00 -- -- -- -- -- -- -- -- --
2021-02-06 21:00:00 -- -- -- -- -- -- -- -- --
2021-02-06 20:00:00 -- -- -- -- -- -- -- -- --
2021-02-06 19:00:00 -- -- -- -- -- -- -- -- --
2021-02-06 18:00:00 -- -- -- -- -- -- -- -- --
2021-02-06 17:00:00 -- -- -- -- -- -- -- -- --
2021-02-06 16:00:00 -- -- -- -- -- -- -- -- --
2021-02-06 15:00:00 -- -- -- -- -- -- -- -- --
2021-02-06 14:00:00 -- -- -- -- -- -- -- -- --
2021-02-06 13:00:00 -- -- -- -- -- -- -- -- --
2021-02-06 12:00:00 -- -- -- -- -- -- -- -- --
2021-02-06 11:00:00 -- -- -- -- -- -- -- -- --
2021-02-06 10:00:00 -- -- -- -- -- -- -- -- --
2021-02-06 09:00:00 -- -- -- -- -- -- -- -- --
2021-02-06 08:00:00 -- -- -- -- -- -- -- -- --
2021-02-06 07:00:00 -- -- -- -- -- -- -- -- --
2021-02-06 06:00:00 -- -- -- -- -- -- -- -- --
2021-02-06 05:00:00 -- -- -- -- -- -- -- -- --
2021-02-06 04:00:00 -- -- -- -- -- -- -- -- --
2021-02-06 03:00:00 -- -- -- -- -- -- -- -- --
2021-02-06 02:00:00 -- -- -- -- -- -- -- -- --
2021-02-06 01:00:00 -- -- -- -- -- -- -- -- --
2021-02-06 00:00:00 -- -- -- -- -- -- -- -- --
2021-02-05 23:00:00 -- -- -- -- -- -- -- -- --
2021-02-05 22:00:00 -- -- -- -- -- -- -- -- --
2021-02-05 21:00:00 -- -- -- -- -- -- -- -- --
2021-02-05 20:00:00 -- -- -- -- -- -- -- -- --
2021-02-05 19:00:00 -- -- -- -- -- -- -- -- --
2021-02-05 18:00:00 -- -- -- -- -- -- -- -- --
2021-02-05 17:00:00 -- -- -- -- -- -- -- -- --
2021-02-05 16:00:00 -- -- -- -- -- -- -- -- --
2021-02-05 15:00:00 -- -- -- -- -- -- -- -- --
2021-02-05 14:00:00 -- -- -- -- -- -- -- -- --
2021-02-05 13:00:00 -- -- -- -- -- -- -- -- --
2021-02-05 12:00:00 -- -- -- -- -- -- -- -- --
2021-02-05 11:00:00 -- -- -- -- -- -- -- -- --
2021-02-05 10:00:00 -- -- -- -- -- -- -- -- --
2021-02-05 09:00:00 -- -- -- -- -- -- -- -- --
2021-02-05 08:00:00 -- -- -- -- -- -- -- -- --
2021-02-05 07:00:00 -- -- -- -- -- -- -- -- --
2021-02-05 06:00:00 -- -- -- -- -- -- -- -- --
2021-02-05 05:00:00 -- -- -- -- -- -- -- -- --
2021-02-05 04:00:00 -- -- -- -- -- -- -- -- --
2021-02-05 03:00:00 -- -- -- -- -- -- -- -- --
2021-02-05 02:00:00 -- -- -- -- -- -- -- -- --
2021-02-05 01:00:00 -- -- -- -- -- -- -- -- --
2021-02-05 00:00:00 -- -- -- -- -- -- -- -- --
2021-02-04 23:00:00 -- -- -- -- -- -- -- -- --
2021-02-04 22:00:00 -- -- -- -- -- -- -- -- --
2021-02-04 21:00:00 -- -- -- -- -- -- -- -- --
2021-02-04 20:00:00 -- -- -- -- -- -- -- -- --
2021-02-04 19:00:00 -- -- -- -- -- -- -- -- --
2021-02-04 18:00:00 -- -- -- -- -- -- -- -- --
2021-02-04 17:00:00 -- -- -- -- -- -- -- -- --
2021-02-04 16:00:00 -- -- -- -- -- -- -- -- --
2021-02-04 15:00:00 -- -- -- -- -- -- -- -- --
2021-02-04 14:00:00 -- -- -- -- -- -- -- -- --
2021-02-04 13:00:00 -- -- -- -- -- -- -- -- --
2021-02-04 12:00:00 -- -- -- -- -- -- -- -- --
2021-02-04 11:00:00 -- -- -- -- -- -- -- -- --
2021-02-04 10:00:00 -- -- -- -- -- -- -- -- --
2021-02-04 09:00:00 -- -- -- -- -- -- -- -- --
2021-02-04 08:00:00 -- -- -- -- -- -- -- -- --
2021-02-04 07:00:00 -- -- -- -- -- -- -- -- --
2021-02-04 06:00:00 -- -- -- -- -- -- -- -- --
2021-02-04 05:00:00 -- -- -- -- -- -- -- -- --
2021-02-04 04:00:00 -- -- -- -- -- -- -- -- --
2021-02-04 03:00:00 -- -- -- -- -- -- -- -- --
2021-02-04 02:00:00 -- -- -- -- -- -- -- -- --
2021-02-04 01:00:00 -- -- -- -- -- -- -- -- --
2021-02-04 00:00:00 -- -- -- -- -- -- -- -- --
2021-02-03 23:00:00 -- -- -- -- -- -- -- -- --
2021-02-03 22:00:00 -- -- -- -- -- -- -- -- --
2021-02-03 21:00:00 -- -- -- -- -- -- -- -- --
2021-02-03 20:00:00 -- -- -- -- -- -- -- -- --
2021-02-03 19:00:00 -- -- -- -- -- -- -- -- --
2021-02-03 18:00:00 -- -- -- -- -- -- -- -- --
2021-02-03 17:00:00 -- -- -- -- -- -- -- -- --
2021-02-03 16:00:00 -- -- -- -- -- -- -- -- --
2021-02-03 15:00:00 -- -- -- -- -- -- -- -- --
2021-02-03 14:00:00 13.2 -- -- -- -- 0 -- -- 78
2021-02-03 13:00:00 12.4 -- -- -- -- 0 -- -- 82
2021-02-03 12:00:00 11 -- -- -- -- 0 -- -- 89
2021-02-03 11:00:00 10.5 -- -- -- -- 0 -- -- 87
2021-02-03 10:00:00 10 -- -- -- -- 0 -- -- 88
2021-02-03 09:00:00 9.4 -- -- -- -- 0 -- -- 87
2021-02-03 08:00:00 9.2 -- -- -- -- 0 -- -- 87
2021-02-03 07:00:00 9.6 -- -- -- -- 0 -- -- 86
2021-02-03 06:00:00 9.6 -- -- -- -- 0.2 -- -- 87
2021-02-03 05:00:00 9.8 -- -- -- -- 0 -- -- 86
2021-02-03 04:00:00 9.9 -- -- -- -- 0 -- -- 86
2021-02-03 03:00:00 9.9 -- -- -- -- 0 -- -- 86
2021-02-03 02:00:00 9.8 -- -- -- -- 0 -- -- 86
2021-02-03 01:00:00 9.9 -- -- -- -- 0 -- -- 84
2021-02-03 00:00:00 10.7 -- -- -- -- 0 -- -- 85
2021-02-02 23:00:00 11.2 -- -- -- -- 0 -- -- 86
2021-02-02 22:00:00 11.5 -- -- -- -- 0 -- -- 82
2021-02-02 21:00:00 12 -- -- -- -- 0 -- -- 80
2021-02-02 20:00:00 12.2 -- -- -- -- 0 -- -- 80
2021-02-02 19:00:00 12.6 -- -- -- -- 0 -- -- 77
2021-02-02 18:00:00 13.2 -- -- -- -- 0 -- -- 74
2021-02-02 17:00:00 13.6 -- -- -- -- 0 -- -- 72
2021-02-02 16:00:00 13.6 -- -- -- -- 0 -- -- 76
2021-02-02 15:00:00 13.4 -- -- -- -- 0 -- -- 78
2021-02-02 14:00:00 12.8 -- -- -- -- 0 -- -- 80
2021-02-02 13:00:00 12.5 -- -- -- -- 0 -- -- 87
2021-02-02 12:00:00 11.3 -- -- -- -- 0.4 -- -- 95
2021-02-02 11:00:00 10.6 -- -- -- -- 0 -- -- 94
2021-02-02 10:00:00 10.1 -- -- -- -- 0 -- -- 93
2021-02-02 09:00:00 9.7 -- -- -- -- 0 -- -- 92
2021-02-02 08:00:00 9.8 -- -- -- -- 0 -- -- 92
2021-02-02 07:00:00 9.7 -- -- -- -- 0 -- -- 92
2021-02-02 06:00:00 9.6 -- -- -- -- 0 -- -- 91
2021-02-02 05:00:00 9.3 -- -- -- -- 0 -- -- 91
2021-02-02 04:00:00 9.2 -- -- -- -- 0 -- -- 90
2021-02-02 03:00:00 8.9 -- -- -- -- 0 -- -- 90
2021-02-02 02:00:00 8.9 -- -- -- -- 0 -- -- 89
2021-02-02 01:00:00 9.1 -- -- -- -- 0 -- -- 87
2021-02-02 00:00:00 9.4 -- -- -- -- 0 -- -- 87
2021-02-01 23:00:00 9.7 -- -- -- -- 0 -- -- 87
2021-02-01 22:00:00 10 -- -- -- -- 0 -- -- 85
2021-02-01 21:00:00 10.6 -- -- -- -- 0 -- -- 84
2021-02-01 20:00:00 11.1 -- -- -- -- 0 -- -- 80
2021-02-01 19:00:00 12 -- -- -- -- 0 -- -- 77
2021-02-01 18:00:00 13.5 -- -- -- -- 0 -- -- 73
2021-02-01 17:00:00 14.7 -- -- -- -- 0 -- -- 69
2021-02-01 16:00:00 15.5 -- -- -- -- 0 -- -- 66
2021-02-01 15:00:00 16.1 -- -- -- -- 0 -- -- 63
2021-02-01 14:00:00 -- -- -- -- -- -- -- -- --
2021-02-01 13:00:00 -- -- -- -- -- -- -- -- --
2021-02-01 12:00:00 -- -- -- -- -- -- -- -- --
2021-02-01 11:00:00 -- -- -- -- -- -- -- -- --
2021-02-01 10:00:00 -- -- -- -- -- -- -- -- --
2021-02-01 09:00:00 -- -- -- -- -- -- -- -- --
2021-02-01 08:00:00 -- -- -- -- -- -- -- -- --
2021-02-01 07:00:00 -- -- -- -- -- -- -- -- --
2021-02-01 06:00:00 -- -- -- -- -- -- -- -- --
2021-02-01 05:00:00 -- -- -- -- -- -- -- -- --
2021-02-01 04:00:00 -- -- -- -- -- -- -- -- --
2021-02-01 03:00:00 -- -- -- -- -- -- -- -- --
2021-02-01 02:00:00 -- -- -- -- -- -- -- -- --
2021-02-01 01:00:00 -- -- -- -- -- -- -- -- --
2021-02-01 00:00:00 -- -- -- -- -- -- -- -- --
2021-01-31 23:00:00 -- -- -- -- -- -- -- -- --
2021-01-31 22:00:00 -- -- -- -- -- -- -- -- --
2021-01-31 21:00:00 -- -- -- -- -- -- -- -- --
2021-01-31 20:00:00 -- -- -- -- -- -- -- -- --
2021-01-31 19:00:00 -- -- -- -- -- -- -- -- --
2021-01-31 18:00:00 -- -- -- -- -- -- -- -- --
2021-01-31 17:00:00 -- -- -- -- -- -- -- -- --
2021-01-31 16:00:00 -- -- -- -- -- -- -- -- --
2021-01-31 15:00:00 -- -- -- -- -- -- -- -- --
2021-01-31 14:00:00 -- -- -- -- -- -- -- -- --
2021-01-31 13:00:00 -- -- -- -- -- -- -- -- --
2021-01-31 12:00:00 -- -- -- -- -- -- -- -- --
2021-01-31 11:00:00 -- -- -- -- -- -- -- -- --
2021-01-31 10:00:00 -- -- -- -- -- -- -- -- --
2021-01-31 09:00:00 -- -- -- -- -- -- -- -- --
2021-01-31 08:00:00 -- -- -- -- -- -- -- -- --
2021-01-31 07:00:00 -- -- -- -- -- -- -- -- --
2021-01-31 06:00:00 -- -- -- -- -- -- -- -- --
2021-01-31 05:00:00 -- -- -- -- -- -- -- -- --
2021-01-31 04:00:00 -- -- -- -- -- -- -- -- --
2021-01-31 03:00:00 -- -- -- -- -- -- -- -- --
2021-01-31 02:00:00 8.4 -- -- -- -- 0 -- -- 78
2021-01-31 01:00:00 8.6 -- -- -- -- 0 -- -- 76
2021-01-31 00:00:00 8.8 -- -- -- -- 0 -- -- 69
2021-01-30 23:00:00 8.9 -- -- -- -- 0 -- -- 79
2021-01-30 22:00:00 9.2 -- -- -- -- 0 -- -- 71
2021-01-30 21:00:00 10 -- -- -- -- 0 -- -- 63
2021-01-30 20:00:00 10.1 -- -- -- -- 0 -- -- 73
2021-01-30 19:00:00 10.6 -- -- -- -- 0 -- -- 69
2021-01-30 18:00:00 11.5 -- -- -- -- 0 -- -- 66
2021-01-30 17:00:00 12.3 -- -- -- -- 0 -- -- 65
2021-01-30 16:00:00 12.5 -- -- -- -- 0 -- -- 68
2021-01-30 15:00:00 12.6 -- -- -- -- 0 -- -- 69
2021-01-30 14:00:00 12.9 -- -- -- -- 0 -- -- 72
2021-01-30 13:00:00 12.2 -- -- -- -- 0 -- -- 81
2021-01-30 12:00:00 11.4 -- -- -- -- 0 -- -- 86
2021-01-30 11:00:00 -- -- -- -- -- -- -- -- --
2021-01-30 10:00:00 10 -- -- -- -- 1.2 -- -- 95
2021-01-30 09:00:00 9.8 -- -- -- -- 0.4 -- -- 96
2021-01-30 08:00:00 9.8 -- -- -- -- 0.6 -- -- 95
2021-01-30 07:00:00 9.9 -- -- -- -- 3 -- -- 95
2021-01-30 06:00:00 10.2 -- -- -- -- 0 -- -- 93
2021-01-30 05:00:00 10.3 -- -- -- -- 0 -- -- 95
2021-01-30 04:00:00 10.3 -- -- -- -- 0 -- -- 97
2021-01-30 03:00:00 10.2 -- -- -- -- 0 -- -- 96
2021-01-30 02:00:00 10.3 -- -- -- -- 0 -- -- 96
2021-01-30 01:00:00 10.1 -- -- -- -- 0 -- -- 97
2021-01-30 00:00:00 9.5 -- -- -- -- 0 -- -- 97